Time;durP1;ratioP1;P1;durP2;ratioP2;P2;SDS_P1;SDS_P2;PMS_P1;PMS_P2;Temp;Humidity;BMP_temperature;BMP_pressure;BME280_temperature;BME280_humidity;BME280_pressure;Samples;Min_cycle;Max_cycle;Signal;HPM_P1;HPM_P2
2023/10/02 00:05:05;;;;;;;19.77;8.77;;;17.50;99.90;;;;;;4981561;28;20775;-60
2023/10/02 00:07:34;;;;;;;20.07;8.43;;;17.60;99.90;;;;;;4984649;28;20269;-60
2023/10/02 00:10:05;;;;;;;21.63;9.70;;;17.70;99.90;;;;;;4999633;28;20211;-60
2023/10/02 00:12:34;;;;;;;18.17;8.60;;;17.70;99.90;;;;;;4998189;28;20626;-61
2023/10/02 00:15:12;;;;;;;16.93;8.67;;;17.70;99.90;;;;;;4999664;28;20611;-61
2023/10/02 00:17:43;;;;;;;18.03;8.63;;;17.70;99.90;;;;;;5001616;28;20237;-60
2023/10/02 00:20:15;;;;;;;20.53;8.67;;;17.80;99.90;;;;;;5001848;28;20214;-60
2023/10/02 00:22:43;;;;;;;22.57;8.97;;;17.80;99.90;;;;;;4999303;28;20235;-60
2023/10/02 00:25:16;;;;;;;24.43;9.03;;;17.80;99.90;;;;;;5001476;28;20279;-61
2023/10/02 00:27:48;;;;;;;18.73;9.10;;;17.70;99.90;;;;;;4997952;28;20344;-60
2023/10/02 00:30:20;;;;;;;17.40;8.43;;;17.80;99.90;;;;;;5004647;28;20783;-60
2023/10/02 00:32:50;;;;;;;21.07;8.70;;;17.80;99.90;;;;;;4998487;28;20233;-61
2023/10/02 00:35:22;;;;;;;18.60;7.90;;;17.80;99.90;;;;;;5001027;28;20242;-61
2023/10/02 00:37:52;;;;;;;19.60;8.60;;;17.80;99.90;;;;;;5001102;28;20694;-60
2023/10/02 00:40:26;;;;;;;22.50;9.17;;;17.80;99.90;;;;;;5000352;28;20231;-60
2023/10/02 00:42:56;;;;;;;22.73;8.60;;;17.70;99.90;;;;;;5013413;28;20289;-60
2023/10/02 00:45:29;;;;;;;20.47;9.13;;;17.70;99.90;;;;;;4999869;28;20227;-61
2023/10/02 00:48:24;;;;;;;17.83;8.80;;;17.70;99.90;;;;;;5000606;28;20213;-60
2023/10/02 00:50:50;;;;;;;19.47;9.03;;;17.70;99.90;;;;;;5000362;28;20545;-61
2023/10/02 00:53:24;;;;;;;19.60;9.00;;;17.70;99.90;;;;;;4998178;28;20225;-61
2023/10/02 00:55:55;;;;;;;19.27;9.13;;;17.70;99.90;;;;;;4997683;28;20232;-60
2023/10/02 00:58:24;;;;;;;17.90;7.97;;;17.70;99.90;;;;;;4997013;28;20202;-60
2023/10/02 01:00:53;;;;;;;21.53;9.50;;;17.70;99.90;;;;;;5016346;28;20205;-60
2023/10/02 01:03:23;;;;;;;18.07;8.50;;;17.70;99.90;;;;;;5001508;28;20240;-61
2023/10/02 01:05:54;;;;;;;19.30;8.60;;;17.80;99.90;;;;;;5000362;28;20225;-60
2023/10/02 01:08:42;;;;;;;19.90;9.03;;;17.80;99.90;;;;;;4986786;28;20225;-61
2023/10/02 01:11:14;;;;;;;18.70;8.87;;;17.70;99.90;;;;;;5000622;28;20229;-60
2023/10/02 01:13:44;;;;;;;24.23;9.03;;;17.70;99.90;;;;;;5001712;28;20225;-59
2023/10/02 01:16:17;;;;;;;16.63;8.20;;;17.70;99.90;;;;;;5000824;28;20203;-52
2023/10/02 01:18:48;;;;;;;15.97;7.83;;;17.70;99.90;;;;;;5000151;28;20213;-60
2023/10/02 01:21:20;;;;;;;22.93;8.40;;;17.60;99.90;;;;;;4999636;28;20264;-61
2023/10/02 01:26:36;;;;;;;20.40;8.00;;;17.60;99.90;;;;;;5005980;28;20257;-61
2023/10/02 01:29:06;;;;;;;19.87;8.53;;;17.50;99.90;;;;;;5001136;28;20231;-60
2023/10/02 01:31:42;;;;;;;18.77;8.87;;;17.50;99.90;;;;;;5000688;28;22259;-60
2023/10/02 01:34:33;;;;;;;21.07;9.13;;;17.40;99.90;;;;;;4986632;28;20228;-60
2023/10/02 01:37:12;;;;;;;17.37;8.23;;;17.40;99.90;;;;;;5002960;28;20229;-60
2023/10/02 01:40:28;;;;;;;18.20;8.40;;;17.40;99.90;;;;;;5001583;28;20230;-60
2023/10/02 01:42:41;;;;;;;16.87;8.70;;;17.40;99.90;;;;;;5003881;28;20231;-60
2023/10/02 01:45:10;;;;;;;18.60;8.53;;;17.40;99.90;;;;;;5000804;28;20231;-61
2023/10/02 01:47:41;;;;;;;16.20;8.63;;;17.40;99.90;;;;;;5000849;28;20227;-60
2023/10/02 01:50:10;;;;;;;16.67;8.67;;;17.40;99.90;;;;;;5002057;28;20241;-60
2023/10/02 01:52:39;;;;;;;18.87;8.67;;;17.40;99.90;;;;;;5003769;28;20236;-60
2023/10/02 01:55:29;;;;;;;18.20;8.00;;;17.40;99.90;;;;;;5005137;28;20198;-60
2023/10/02 01:58:16;;;;;;;18.13;7.80;;;17.40;99.90;;;;;;5003750;28;20534;-60
2023/10/02 02:00:46;;;;;;;20.17;8.67;;;17.40;99.90;;;;;;5001327;28;20222;-60
2023/10/02 02:03:17;;;;;;;18.63;8.50;;;17.40;99.90;;;;;;5004263;28;20235;-60
2023/10/02 02:05:47;;;;;;;18.97;9.03;;;17.30;99.90;;;;;;5002519;28;20265;-60
2023/10/02 02:08:24;;;;;;;18.30;8.40;;;17.30;99.90;;;;;;4994466;28;20308;-60
2023/10/02 02:11:14;;;;;;;22.73;9.13;;;17.30;99.90;;;;;;4980026;28;20302;-60
2023/10/02 02:13:46;;;;;;;22.93;8.47;;;17.30;99.90;;;;;;4984436;28;20230;-60
2023/10/02 02:16:17;;;;;;;20.77;8.67;;;17.30;99.90;;;;;;4986116;28;20195;-60
2023/10/02 02:18:48;;;;;;;21.10;9.23;;;17.30;99.90;;;;;;4983046;28;20231;-60
2023/10/02 02:21:18;;;;;;;18.53;8.47;;;17.30;99.90;;;;;;4977392;28;20214;-60
2023/10/02 02:23:48;;;;;;;18.57;8.27;;;17.20;99.90;;;;;;4982710;28;20231;-61
2023/10/02 02:26:21;;;;;;;18.90;8.97;;;17.10;99.90;;;;;;4984721;28;20252;-60
2023/10/02 02:28:51;;;;;;;16.33;8.13;;;17.00;99.90;;;;;;4982297;28;20223;-60
2023/10/02 02:31:32;;;;;;;16.53;8.03;;;16.90;99.90;;;;;;4998505;28;20195;-60
2023/10/02 02:34:06;;;;;;;19.33;8.60;;;16.80;99.90;;;;;;4986177;28;20203;-61
2023/10/02 02:36:35;;;;;;;17.07;7.90;;;16.70;99.90;;;;;;4981790;28;20223;-60
2023/10/02 02:39:17;;;;;;;19.33;8.50;;;16.60;99.90;;;;;;4986143;28;20228;-61
2023/10/02 02:42:08;;;;;;;16.13;7.93;;;16.50;99.90;;;;;;4984657;28;20257;-61
2023/10/02 02:44:43;;;;;;;19.90;8.67;;;16.50;99.90;;;;;;4996643;28;20233;-61
2023/10/02 02:47:14;;;;;;;17.33;8.70;;;16.40;99.90;;;;;;4969683;28;20245;-60
2023/10/02 02:49:51;;;;;;;18.97;8.97;;;16.40;99.90;;;;;;4983127;28;20945;-60
2023/10/02 02:52:25;;;;;;;20.30;8.93;;;16.40;99.90;;;;;;4966071;28;20198;-60
2023/10/02 02:55:12;;;;;;;17.63;8.37;;;16.30;99.90;;;;;;4985620;28;20277;-61
2023/10/02 02:57:45;;;;;;;18.83;9.07;;;16.30;99.90;;;;;;4985740;28;20293;-61
2023/10/02 03:00:31;;;;;;;18.73;8.37;;;16.20;99.90;;;;;;4983585;28;20317;-61
2023/10/02 03:03:02;;;;;;;19.43;8.43;;;16.20;99.90;;;;;;4984835;28;20258;-61
2023/10/02 03:05:40;;;;;;;19.50;8.47;;;16.20;99.90;;;;;;4982931;28;20228;-61
2023/10/02 03:08:11;;;;;;;17.57;8.23;;;16.10;99.90;;;;;;4983368;28;20237;-61
2023/10/02 03:10:46;;;;;;;21.03;8.83;;;16.10;99.90;;;;;;4986509;28;20711;-62
2023/10/02 03:13:17;;;;;;;18.47;8.63;;;16.10;99.90;;;;;;4986524;28;20348;-60
2023/10/02 03:15:46;;;;;;;19.10;8.57;;;16.00;99.90;;;;;;4967402;28;20216;-61
2023/10/02 03:18:30;;;;;;;16.77;8.13;;;16.00;99.90;;;;;;4981922;28;20258;-61
2023/10/02 03:21:13;;;;;;;20.60;8.93;;;16.00;99.90;;;;;;4983795;28;20229;-61
2023/10/02 03:23:43;;;;;;;17.67;8.17;;;16.00;99.90;;;;;;4982145;28;20234;-60
2023/10/02 03:26:26;;;;;;;17.03;8.80;;;16.00;99.90;;;;;;4982122;28;20239;-61
2023/10/02 03:29:02;;;;;;;19.63;9.23;;;16.00;99.90;;;;;;4985900;28;20599;-60
2023/10/02 03:31:36;;;;;;;23.07;10.57;;;16.00;99.90;;;;;;4981151;28;20245;-60
2023/10/02 03:36:50;;;;;;;17.73;9.10;;;15.90;99.90;;;;;;4983492;28;20230;-61
2023/10/02 03:39:51;;;;;;;18.97;9.00;;;15.90;99.90;;;;;;4979659;28;20227;-61
2023/10/02 03:42:14;;;;;;;20.10;8.80;;;16.00;99.90;;;;;;4980766;28;20219;-61
2023/10/02 03:44:45;;;;;;;17.53;9.03;;;16.00;99.90;;;;;;4995501;28;20223;-61
2023/10/02 03:47:18;;;;;;;20.83;8.97;;;15.90;99.90;;;;;;4984927;28;20233;-61
2023/10/02 03:49:49;;;;;;;20.30;8.60;;;15.90;99.90;;;;;;4982851;28;20229;-61
2023/10/02 03:52:18;;;;;;;19.33;8.30;;;15.80;99.90;;;;;;4980566;28;20192;-60
2023/10/02 03:54:49;;;;;;;24.07;9.10;;;15.70;99.90;;;;;;4983739;28;20279;-61
2023/10/02 04:00:18;;;;;;;17.50;8.80;;;15.60;99.90;;;;;;4981888;28;20222;-61
2023/10/02 04:02:49;;;;;;;21.77;8.53;;;15.60;99.90;;;;;;4996076;28;20694;-59
2023/10/02 04:08:21;;;;;;;21.20;8.73;;;15.50;99.90;;;;;;4980546;28;20772;-62
2023/10/02 04:11:02;;;;;;;19.87;8.80;;;15.40;99.90;;;;;;4984494;28;20230;-60
2023/10/02 04:13:34;;;;;;;21.50;9.40;;;15.40;99.90;;;;;;4986650;28;20195;-61
2023/10/02 04:18:58;;;;;;;18.80;8.20;;;15.30;99.90;;;;;;4981726;28;20260;-61
2023/10/02 04:21:28;;;;;;;21.10;8.50;;;15.30;99.90;;;;;;4978833;28;20214;-60
2023/10/02 04:23:58;;;;;;;17.43;8.73;;;15.30;99.90;;;;;;4984261;28;20224;-60
2023/10/02 04:26:28;;;;;;;22.23;9.43;;;15.20;99.90;;;;;;4984111;28;20251;-61
2023/10/02 04:29:09;;;;;;;19.30;8.70;;;15.20;99.90;;;;;;4983414;28;20220;-60
2023/10/02 04:31:42;;;;;;;20.70;8.63;;;15.20;99.90;;;;;;4980093;28;20849;-60
2023/10/02 04:34:24;;;;;;;20.03;8.73;;;15.20;99.90;;;;;;4981542;28;20225;-60
2023/10/02 04:36:52;;;;;;;16.53;8.80;;;15.10;99.90;;;;;;4982019;28;20231;-60
2023/10/02 04:42:14;;;;;;;18.13;8.50;;;15.10;99.90;;;;;;4979992;28;20228;-60
2023/10/02 04:44:46;;;;;;;18.30;9.10;;;15.10;99.90;;;;;;4983003;28;20609;-60
2023/10/02 04:47:19;;;;;;;20.60;9.27;;;15.00;99.90;;;;;;4982815;28;20235;-60
2023/10/02 04:55:24;;;;;;;21.20;10.03;;;15.00;99.90;;;;;;4978946;28;20240;-60
2023/10/02 04:57:55;;;;;;;19.93;9.43;;;15.00;99.90;;;;;;4983183;28;20278;-60
2023/10/02 05:03:18;;;;;;;27.17;10.00;;;15.10;99.90;;;;;;4983948;28;20568;-61
2023/10/02 05:05:48;;;;;;;20.80;9.20;;;15.00;99.90;;;;;;4984650;28;20274;-60
2023/10/02 05:08:20;;;;;;;21.00;9.03;;;15.00;99.90;;;;;;4985023;28;20225;-60
2023/10/02 05:10:50;;;;;;;20.97;9.23;;;14.90;99.90;;;;;;4981669;28;20262;-60
2023/10/02 05:13:45;;;;;;;19.43;7.97;;;14.90;99.90;;;;;;4985020;28;20203;-60
2023/10/02 05:16:11;;;;;;;18.00;8.20;;;14.90;99.90;;;;;;4985386;28;20204;-61
2023/10/02 05:18:47;;;;;;;19.40;8.27;;;14.90;99.90;;;;;;4984187;28;20259;-60
2023/10/02 05:21:17;;;;;;;18.07;8.37;;;14.80;99.90;;;;;;4981076;28;20314;-60
2023/10/02 05:23:56;;;;;;;18.57;7.80;;;14.80;99.90;;;;;;4987136;28;20225;-60
2023/10/02 05:26:34;;;;;;;18.80;8.23;;;14.80;99.90;;;;;;4984441;28;20236;-60
2023/10/02 05:29:05;;;;;;;25.30;9.30;;;14.80;99.90;;;;;;4984453;28;20824;-60
2023/10/02 05:31:40;;;;;;;23.17;9.70;;;14.80;99.90;;;;;;4985175;28;20264;-60
2023/10/02 05:34:13;;;;;;;22.13;8.37;;;14.80;99.90;;;;;;4984222;28;20205;-60
2023/10/02 05:36:55;;;;;;;19.13;8.90;;;14.80;99.90;;;;;;4985837;28;20654;-60
2023/10/02 05:39:31;;;;;;;22.93;9.57;;;14.80;99.90;;;;;;4982700;28;20311;-60
2023/10/02 05:42:05;;;;;;;24.53;10.07;;;14.80;99.90;;;;;;4981346;28;20276;-60
2023/10/02 05:44:35;;;;;;;19.33;9.27;;;14.80;99.90;;;;;;4970883;28;20239;-60
2023/10/02 05:47:07;;;;;;;22.70;9.23;;;14.80;99.90;;;;;;4983586;28;20293;-61
2023/10/02 05:49:43;;;;;;;22.73;10.33;;;14.90;99.90;;;;;;4984666;28;20232;-60
2023/10/02 05:52:12;;;;;;;22.80;9.33;;;14.80;99.90;;;;;;4981681;28;20213;-60
2023/10/02 05:54:47;;;;;;;27.40;10.47;;;14.80;99.90;;;;;;4978324;28;20223;-60
2023/10/02 05:57:16;;;;;;;23.20;9.60;;;14.80;99.90;;;;;;4982515;28;20227;-60
2023/10/02 05:59:48;;;;;;;26.50;10.80;;;14.80;99.90;;;;;;4984658;28;20589;-60
2023/10/02 06:02:19;;;;;;;22.87;9.30;;;14.80;99.90;;;;;;4985236;28;20236;-60
2023/10/02 06:04:52;;;;;;;29.10;10.40;;;14.90;99.90;;;;;;4982782;28;20228;-60
2023/10/02 06:10:07;;;;;;;22.97;9.60;;;14.90;99.90;;;;;;4985726;28;20719;-60
2023/10/02 06:12:35;;;;;;;21.37;9.83;;;15.00;99.90;;;;;;4981496;28;20227;-60
2023/10/02 06:15:09;;;;;;;23.47;9.87;;;15.00;99.90;;;;;;4983643;28;20242;-60
2023/10/02 06:17:38;;;;;;;25.63;10.30;;;15.00;99.90;;;;;;4982063;28;21136;-60
2023/10/02 06:20:17;;;;;;;23.33;10.13;;;15.10;99.90;;;;;;4981415;28;20637;-60
2023/10/02 06:22:47;;;;;;;24.13;9.93;;;15.10;99.90;;;;;;4966181;28;20231;-60
2023/10/02 06:25:18;;;;;;;26.93;10.63;;;15.20;99.90;;;;;;4984118;28;20244;-59
2023/10/02 06:27:47;;;;;;;24.20;10.70;;;15.30;99.90;;;;;;4982287;28;20206;-60
2023/10/02 06:30:17;;;;;;;28.53;11.00;;;15.40;99.90;;;;;;4982038;28;20219;-60
2023/10/02 06:32:53;;;;;;;24.60;11.27;;;15.50;99.90;;;;;;4982512;28;20227;-60
2023/10/02 06:35:27;;;;;;;29.80;9.83;;;15.60;99.90;;;;;;4980921;28;20634;-60
2023/10/02 06:37:56;;;;;;;22.47;10.13;;;15.60;99.90;;;;;;4981400;28;20315;-60
2023/10/02 06:40:25;;;;;;;25.60;10.00;;;15.70;99.90;;;;;;4978613;28;20836;-60
2023/10/02 06:42:57;;;;;;;30.20;10.10;;;15.70;99.90;;;;;;4984931;28;20212;-60
2023/10/02 06:45:26;;;;;;;22.30;9.83;;;15.80;99.90;;;;;;4986083;28;20245;-60
2023/10/02 06:47:56;;;;;;;28.87;11.07;;;15.90;99.90;;;;;;4980248;28;20218;-60
2023/10/02 06:50:30;;;;;;;24.30;10.60;;;16.00;99.90;;;;;;4981217;28;20897;-60
2023/10/02 06:52:59;;;;;;;23.93;10.77;;;16.10;99.90;;;;;;4983803;28;20237;-60
2023/10/02 06:55:29;;;;;;;28.43;10.37;;;16.20;99.90;;;;;;4981152;28;20229;-60
2023/10/02 06:57:57;;;;;;;25.63;10.87;;;16.30;99.90;;;;;;4981508;28;20202;-58
2023/10/02 07:00:36;;;;;;;28.03;10.50;;;16.50;99.90;;;;;;4981376;28;20708;-60
2023/10/02 07:03:08;;;;;;;25.17;10.77;;;16.60;99.90;;;;;;4983962;28;20260;-60
2023/10/02 07:05:39;;;;;;;25.20;10.50;;;16.70;99.90;;;;;;4985703;28;20246;-60
2023/10/02 07:08:21;;;;;;;24.20;10.73;;;16.90;99.90;;;;;;4984889;28;20281;-60
2023/10/02 07:10:51;;;;;;;26.03;10.60;;;17.10;99.90;;;;;;4982672;28;20227;-60
2023/10/02 07:13:23;;;;;;;22.70;10.00;;;17.30;99.90;;;;;;4968955;28;20649;-60
2023/10/02 07:15:55;;;;;;;24.23;9.57;;;17.40;99.90;;;;;;4983859;28;20540;-60
2023/10/02 07:18:35;;;;;;;23.67;10.40;;;17.60;99.90;;;;;;4972303;28;20250;-60
2023/10/02 07:21:07;;;;;;;25.33;10.27;;;17.60;99.90;;;;;;4978262;28;20232;-60
2023/10/02 07:23:37;;;;;;;26.57;10.53;;;17.60;99.90;;;;;;4983044;28;20245;-60
2023/10/02 07:26:14;;;;;;;24.97;10.57;;;17.70;99.90;;;;;;4982970;28;20237;-60
2023/10/02 07:28:50;;;;;;;23.33;10.13;;;17.70;99.90;;;;;;4978587;28;20246;-60
2023/10/02 07:31:26;;;;;;;26.23;10.17;;;17.80;99.90;;;;;;4981069;28;20250;-60
2023/10/02 07:33:55;;;;;;;26.05;11.65;;;17.80;99.90;;;;;;4982504;28;20518;-60
2023/10/02 07:36:26;;;;;;;26.90;10.97;;;17.80;99.90;;;;;;4965811;28;20317;-60
2023/10/02 07:38:56;;;;;;;23.20;11.00;;;17.90;99.90;;;;;;4981962;28;20332;-60
2023/10/02 07:41:24;;;;;;;23.07;9.80;;;18.00;99.90;;;;;;4980028;28;20676;-60
2023/10/02 07:43:53;;;;;;;21.03;10.50;;;18.20;99.90;;;;;;4982756;28;20281;-60
2023/10/02 07:46:26;;;;;;;28.23;10.87;;;18.50;99.90;;;;;;4979176;28;20206;-58
2023/10/02 07:48:57;;;;;;;25.50;10.87;;;18.80;99.90;;;;;;4978321;28;20187;-59
2023/10/02 07:51:35;;;;;;;22.50;9.93;;;19.10;99.90;;;;;;4981068;28;20635;-60
2023/10/02 07:54:06;;;;;;;25.37;10.20;;;19.30;99.90;;;;;;4978909;28;20226;-59
2023/10/02 07:56:35;;;;;;;20.83;10.63;;;19.50;99.90;;;;;;4976452;28;20223;-60
2023/10/02 07:59:07;;;;;;;22.93;10.40;;;19.80;99.60;;;;;;4983503;28;20231;-59
2023/10/02 08:01:39;;;;;;;24.13;10.27;;;20.10;98.50;;;;;;4982588;28;20234;-59
2023/10/02 08:04:07;;;;;;;25.65;11.50;;;20.10;95.10;;;;;;4981932;28;20469;-59
2023/10/02 08:06:37;;;;;;;22.73;10.20;;;20.10;92.30;;;;;;4978846;28;20222;-59
2023/10/02 08:11:57;;;;;;;28.47;11.27;;;20.10;92.90;;;;;;4970907;28;20214;-60
2023/10/02 08:14:42;;;;;;;25.73;10.73;;;20.00;93.90;;;;;;4981866;28;20727;-60
2023/10/02 08:17:21;;;;;;;23.83;10.43;;;20.10;94.60;;;;;;4978626;28;20241;-59
2023/10/02 08:19:59;;;;;;;28.30;11.17;;;20.20;94.90;;;;;;4982539;28;20226;-59
2023/10/02 08:22:35;;;;;;;26.43;10.63;;;20.20;91.40;;;;;;4977778;28;20218;-60
2023/10/02 08:25:13;;;;;;;28.13;11.13;;;20.40;93.60;;;;;;4981674;28;20951;-59
2023/10/02 08:27:42;;;;;;;23.70;10.23;;;20.60;81.90;;;;;;4982327;28;20316;-60
2023/10/02 08:30:27;;;;;;;30.57;11.50;;;20.60;70.30;;;;;;4977220;28;20222;-59
2023/10/02 08:33:05;;;;;;;21.60;9.90;;;20.70;68.40;;;;;;4982675;28;20237;-59
2023/10/02 08:35:41;;;;;;;23.53;11.30;;;20.70;64.20;;;;;;4980443;28;20632;-60
2023/10/02 08:38:21;;;;;;;28.63;10.67;;;20.80;74.70;;;;;;4980335;28;20224;-59
2023/10/02 08:40:57;;;;;;;28.60;11.43;;;20.80;75.30;;;;;;4984302;28;20284;-60
2023/10/02 08:43:26;;;;;;;24.73;10.70;;;21.00;60.90;;;;;;4976713;28;20253;-58
2023/10/02 08:45:55;;;;;;;28.33;11.33;;;21.10;52.20;;;;;;4991261;28;20202;-59
2023/10/02 08:48:25;;;;;;;27.70;11.23;;;21.20;59.60;;;;;;4981265;28;20249;-59
2023/10/02 08:50:58;;;;;;;24.70;10.17;;;21.30;35.20;;;;;;4992221;28;20246;-59
2023/10/02 08:53:28;;;;;;;25.13;10.13;;;21.40;43.80;;;;;;4981136;28;20220;-59
2023/10/02 08:56:24;;;;;;;29.60;11.37;;;21.50;49.50;;;;;;4981920;28;20215;-58
2023/10/02 09:01:35;;;;;;;25.73;10.47;;;21.50;40.50;;;;;;4963185;28;20246;-59
2023/10/02 09:04:22;;;;;;;23.40;10.47;;;21.70;53.10;;;;;;4985832;28;20262;-59
2023/10/02 09:06:53;;;;;;;25.40;11.37;;;21.60;32.80;;;;;;4981022;28;20209;-59
2023/10/02 09:09:26;;;;;;;22.53;10.57;;;21.70;35.40;;;;;;4979551;28;20227;-59
2023/10/02 09:11:57;;;;;;;25.33;11.27;;;21.70;40.30;;;;;;4984603;28;20266;-59
2023/10/02 09:17:16;;;;;;;28.63;11.87;;;22.10;36.60;;;;;;4978718;28;20228;-59
2023/10/02 09:19:51;;;;;;;25.97;11.00;;;22.50;20.80;;;;;;4982590;28;20233;-59
2023/10/02 09:22:21;;;;;;;30.23;12.60;;;22.70;2.20;;;;;;4980085;28;20216;-59
2023/10/02 09:25:10;;;;;;;23.57;10.90;;;22.70;1.00;;;;;;4980980;28;20289;-60
2023/10/02 09:27:54;;;;;;;26.10;11.23;;;22.70;1.00;;;;;;4986348;28;20276;-60
2023/10/02 09:30:36;;;;;;;26.77;11.33;;;22.80;1.00;;;;;;4987777;28;20219;-60
2023/10/02 09:33:14;;;;;;;24.70;10.70;;;22.80;1.00;;;;;;4986112;28;20229;-60
2023/10/02 09:35:56;;;;;;;26.13;11.50;;;22.90;1.00;;;;;;4984866;28;20214;-59
2023/10/02 09:38:46;;;;;;;24.00;10.50;;;23.00;1.00;;;;;;4980929;28;20235;-59
2023/10/02 09:41:20;;;;;;;26.00;11.50;;;23.30;1.00;;;;;;4983761;28;20872;-59
2023/10/02 09:43:49;;;;;;;28.50;11.70;;;23.40;1.00;;;;;;4982050;28;20549;-59
2023/10/02 09:46:22;;;;;;;26.30;11.73;;;23.30;1.00;;;;;;4968880;28;20277;-58
2023/10/02 09:49:03;;;;;;;26.00;11.40;;;23.20;1.00;;;;;;4983602;28;20627;-59
2023/10/02 09:51:45;;;;;;;26.63;10.60;;;23.10;1.00;;;;;;4984240;28;20217;-59
2023/10/02 09:54:25;;;;;;;25.43;11.57;;;23.10;1.00;;;;;;4990737;28;20253;-59
2023/10/02 09:57:11;;;;;;;28.07;10.50;;;23.10;1.00;;;;;;4984325;28;20719;-60
2023/10/02 09:59:46;;;;;;;25.67;11.30;;;23.10;1.00;;;;;;4990012;28;20233;-59
2023/10/02 10:10:48;;;;;;;27.10;11.53;;;23.10;1.00;;;;;;4976538;28;20220;-59
2023/10/02 10:13:31;;;;;;;32.47;12.03;;;23.10;1.00;;;;;;4986196;28;20195;-59
2023/10/02 10:16:38;;;;;;;28.53;11.53;;;23.00;1.00;;;;;;4985222;28;21214;-60
2023/10/02 10:21:57;;;;;;;25.77;11.53;;;23.30;1.00;;;;;;4985565;28;20227;-60
2023/10/02 10:25:22;;;;;;;25.23;11.00;;;23.40;1.00;;;;;;4985272;28;20228;-59
2023/10/02 10:27:54;;;;;;;27.83;11.30;;;23.40;1.00;;;;;;4986995;28;20210;-59
2023/10/02 10:30:47;;;;;;;27.73;11.80;;;23.40;1.00;;;;;;4982770;28;20224;-59
2023/10/02 10:33:35;;;;;;;29.13;12.57;;;23.50;1.00;;;;;;4983494;28;20258;-59
2023/10/02 10:36:25;;;;;;;26.20;11.83;;;23.80;1.00;;;;;;4980869;28;20250;-60
2023/10/02 10:38:54;;;;;;;28.37;11.77;;;24.00;1.00;;;;;;4981129;28;20281;-60
2023/10/02 10:41:31;;;;;;;27.00;11.30;;;24.20;1.00;;;;;;4982688;28;20243;-59
2023/10/02 10:44:06;;;;;;;23.17;11.33;;;24.30;1.00;;;;;;4984122;28;20254;-59
2023/10/02 10:46:39;;;;;;;22.77;9.90;;;24.20;1.00;;;;;;4986563;28;20238;-58
2023/10/02 10:49:16;;;;;;;26.93;11.80;;;24.20;1.00;;;;;;4984623;28;20209;-58
2023/10/02 10:51:47;;;;;;;25.77;10.87;;;24.20;1.00;;;;;;4982812;28;20718;-59
2023/10/02 10:54:25;;;;;;;27.70;11.80;;;24.30;1.00;;;;;;4984593;28;20226;-59
2023/10/02 10:57:22;;;;;;;30.30;11.90;;;24.50;1.00;;;;;;4984229;28;20218;-59
2023/10/02 11:00:23;;;;;;;25.50;11.63;;;24.60;1.00;;;;;;4983434;28;20227;-59
2023/10/02 11:03:01;;;;;;;28.40;11.97;;;24.60;1.00;;;;;;4982361;28;20278;-59
2023/10/02 11:05:34;;;;;;;27.87;11.70;;;24.60;1.00;;;;;;4985728;28;20226;-60
2023/10/02 11:08:23;;;;;;;32.43;11.80;;;24.60;1.00;;;;;;4982258;28;20232;-60
2023/10/02 11:11:11;;;;;;;27.23;11.80;;;24.50;1.00;;;;;;4981480;28;20271;-59
2023/10/02 11:14:01;;;;;;;24.97;11.00;;;24.70;1.00;;;;;;4983457;28;20236;-59
2023/10/02 11:16:37;;;;;;;25.40;9.93;;;24.80;1.00;;;;;;4983328;28;20194;-59
2023/10/02 11:19:35;;;;;;;25.87;10.93;;;24.90;1.00;;;;;;4983997;28;20203;-60
2023/10/02 11:22:18;;;;;;;25.17;10.70;;;25.00;1.00;;;;;;4978700;28;20277;-60
2023/10/02 11:25:18;;;;;;;29.80;11.90;;;24.90;1.00;;;;;;4972353;28;20219;-60
2023/10/02 11:27:56;;;;;;;24.97;10.67;;;24.90;1.00;;;;;;4982882;28;20210;-59
2023/10/02 11:30:32;;;;;;;26.73;11.27;;;25.00;1.00;;;;;;4983342;28;20230;-60
2023/10/02 11:33:04;;;;;;;28.13;11.73;;;25.20;1.00;;;;;;4997843;28;20242;-60
2023/10/02 11:35:39;;;;;;;26.90;11.27;;;25.20;1.00;;;;;;4980489;28;20224;-59
2023/10/02 11:38:09;;;;;;;28.67;12.07;;;25.20;1.00;;;;;;4981835;28;20227;-59
2023/10/02 11:40:43;;;;;;;29.80;11.30;;;25.20;1.00;;;;;;4974486;28;20226;-60
2023/10/02 11:43:14;;;;;;;26.10;11.73;;;25.20;1.00;;;;;;4978588;28;20211;-60
2023/10/02 11:45:43;;;;;;;23.30;10.67;;;25.30;1.00;;;;;;4982190;28;20703;-60
2023/10/02 11:48:12;;;;;;;24.17;11.10;;;25.20;1.00;;;;;;4984330;28;20227;-59
2023/10/02 11:50:43;;;;;;;21.87;10.37;;;25.20;1.00;;;;;;4985854;28;20254;-59
2023/10/02 11:53:12;;;;;;;25.50;10.80;;;25.20;1.00;;;;;;4976898;28;20217;-60
2023/10/02 11:55:40;;;;;;;22.90;11.33;;;25.10;1.00;;;;;;4974969;28;20231;-59
2023/10/02 11:58:09;;;;;;;25.67;11.83;;;25.00;1.00;;;;;;4983232;28;20210;-59
2023/10/02 12:00:38;;;;;;;25.43;11.37;;;24.90;1.00;;;;;;4977305;28;20234;-60
2023/10/02 12:03:06;;;;;;;23.13;11.37;;;24.90;1.00;;;;;;4978742;28;20219;-60
2023/10/02 12:05:36;;;;;;;25.77;11.63;;;24.90;1.00;;;;;;4981413;28;20221;-59
2023/10/02 12:08:07;;;;;;;26.03;11.13;;;25.00;1.00;;;;;;4991103;28;20236;-60
2023/10/02 12:10:39;;;;;;;25.23;11.50;;;25.20;1.00;;;;;;5000901;28;20226;-59
2023/10/02 12:13:08;;;;;;;27.23;11.63;;;25.50;1.00;;;;;;4998708;28;20524;-59
2023/10/02 12:15:37;;;;;;;26.13;11.43;;;25.60;1.00;;;;;;5002480;28;20324;-60
2023/10/02 12:18:06;;;;;;;24.83;11.90;;;25.70;1.00;;;;;;5000101;28;20229;-60
2023/10/02 12:20:42;;;;;;;27.37;12.03;;;25.80;1.00;;;;;;4998897;28;20229;-59
2023/10/02 12:23:14;;;;;;;25.40;11.77;;;25.90;1.00;;;;;;4999800;28;20595;-59
2023/10/02 12:25:46;;;;;;;27.37;12.13;;;25.90;1.00;;;;;;4997369;28;20226;-59
2023/10/02 12:28:15;;;;;;;27.97;11.73;;;26.00;1.00;;;;;;4997005;28;20826;-58
2023/10/02 12:30:44;;;;;;;23.30;11.00;;;26.10;1.00;;;;;;5002233;28;20199;-59
2023/10/02 12:33:14;;;;;;;29.47;12.37;;;26.10;1.00;;;;;;4995785;28;20225;-59
2023/10/02 12:35:42;;;;;;;26.93;11.83;;;26.00;1.00;;;;;;5003962;28;20635;-59
2023/10/02 12:38:13;;;;;;;27.07;11.70;;;26.00;1.00;;;;;;4999578;28;20588;-59
2023/10/02 12:40:42;;;;;;;29.50;12.27;;;25.90;1.00;;;;;;5002368;28;20753;-59
2023/10/02 12:43:10;;;;;;;25.37;11.53;;;25.90;1.00;;;;;;5000641;28;20290;-59
2023/10/02 12:45:39;;;;;;;26.30;11.40;;;26.10;1.00;;;;;;5002768;28;20232;-60
2023/10/02 12:48:07;;;;;;;24.20;11.53;;;26.10;1.00;;;;;;5001365;28;20234;-59
2023/10/02 12:50:39;;;;;;;24.50;11.27;;;26.00;1.00;;;;;;4999301;28;20249;-60
2023/10/02 12:53:08;;;;;;;25.83;11.00;;;26.00;1.00;;;;;;4997155;28;20267;-59
2023/10/02 12:55:42;;;;;;;24.07;11.50;;;26.10;99.90;;;;;;4999415;28;20241;-59
2023/10/02 12:58:11;;;;;;;27.57;12.00;;;26.20;1.00;;;;;;5001450;28;20579;-59
2023/10/02 13:00:39;;;;;;;28.17;12.63;;;26.10;99.90;;;;;;5001980;28;20214;-59
2023/10/02 13:03:08;;;;;;;23.57;10.43;;;26.10;1.00;;;;;;4996061;28;20308;-59
2023/10/02 13:05:38;;;;;;;25.33;10.97;;;26.10;1.00;;;;;;5002467;28;20226;-59
2023/10/02 13:08:07;;;;;;;24.23;10.93;;;26.10;99.90;;;;;;5004102;28;20317;-59
2023/10/02 13:10:35;;;;;;;26.63;11.90;;;26.10;1.00;;;;;;5002156;28;20229;-59
2023/10/02 13:13:06;;;;;;;26.37;11.57;;;26.10;1.00;;;;;;5002773;28;20735;-59
2023/10/02 13:15:36;;;;;;;25.47;11.10;;;26.10;1.00;;;;;;4996544;28;21048;-59
2023/10/02 13:18:05;;;;;;;26.30;11.63;;;26.30;1.00;;;;;;4999601;28;20262;-60
2023/10/02 13:20:35;;;;;;;22.27;11.27;;;26.40;1.00;;;;;;5002368;28;20675;-59
2023/10/02 13:23:04;;;;;;;26.17;11.03;;;26.60;99.90;;;;;;5003672;28;20217;-59
2023/10/02 13:25:34;;;;;;;25.47;11.37;;;26.70;1.00;;;;;;5008179;28;20321;-59
2023/10/02 13:28:03;;;;;;;24.83;10.77;;;26.70;99.90;;;;;;4988408;28;20191;-59
2023/10/02 13:30:33;;;;;;;22.87;11.33;;;26.70;99.90;;;;;;5000522;28;20310;-59
2023/10/02 13:33:02;;;;;;;24.17;11.37;;;26.80;99.90;;;;;;5005857;28;20226;-59
2023/10/02 13:35:32;;;;;;;30.80;11.67;;;26.90;99.90;;;;;;5002232;28;20612;-59
2023/10/02 13:38:01;;;;;;;27.70;11.77;;;27.00;99.90;;;;;;4990301;28;20226;-59
2023/10/02 13:40:32;;;;;;;28.07;12.33;;;27.10;99.90;;;;;;4999937;28;20453;-59
2023/10/02 13:43:00;;;;;;;26.90;12.00;;;27.20;99.90;;;;;;5004989;28;20447;-59
2023/10/02 13:45:29;;;;;;;25.17;11.52;;;27.20;94.70;;;;;;5003303;28;20223;-59
2023/10/02 13:47:59;;;;;;;27.35;12.70;;;27.10;99.90;;;;;;5005534;28;20302;-59
2023/10/02 13:50:28;;;;;;;31.73;12.47;;;27.10;99.90;;;;;;5005553;28;20232;-59
2023/10/02 13:52:58;;;;;;;24.87;11.80;;;27.10;99.90;;;;;;5006303;28;20228;-60
2023/10/02 13:55:27;;;;;;;24.65;11.50;;;27.10;83.40;;;;;;5012211;28;20708;-59
2023/10/02 13:57:56;;;;;;;26.58;12.10;;;27.10;99.90;;;;;;5004239;28;20215;-59
2023/10/02 14:00:26;;;;;;;29.00;12.50;;;27.10;99.90;;;;;;5002894;28;20222;-59